Time;durP1;ratioP1;P1;durP2;ratioP2;P2;SDS_P1;SDS_P2;PMS_P1;PMS_P2;Temp;Humidity;BMP_temperature;BMP_pressure;BME280_temperature;BME280_humidity;BME280_pressure;Samples;Min_cycle;Max_cycle;Signal;HPM_P1;HPM_P2
2022/12/04 00:01:23;;;;;;;47.42;27.17;;;0.30;99.90;;;;;;5065594;28;19979;-48
2022/12/04 00:03:53;;;;;;;45.17;26.63;;;0.30;99.90;;;;;;5065971;28;20036;-47
2022/12/04 00:06:20;;;;;;;47.58;27.98;;;0.30;99.90;;;;;;5064348;28;20066;-46
2022/12/04 00:08:46;;;;;;;49.00;29.85;;;0.30;99.90;;;;;;5066387;28;22672;-48
2022/12/04 00:11:14;;;;;;;45.78;24.33;;;0.30;99.90;;;;;;5066287;28;20131;-46
2022/12/04 00:13:41;;;;;;;53.17;32.00;;;0.30;99.90;;;;;;5046602;28;21065;-46
2022/12/04 00:16:09;;;;;;;47.90;28.13;;;0.30;99.90;;;;;;5064872;28;20040;-47
2022/12/04 00:18:36;;;;;;;51.45;29.63;;;0.30;99.90;;;;;;5059985;28;20048;-46
2022/12/04 00:21:10;;;;;;;50.95;30.40;;;0.30;99.90;;;;;;5060491;28;20045;-47
2022/12/04 00:23:37;;;;;;;54.30;30.85;;;0.30;99.90;;;;;;5046090;28;20402;-46
2022/12/04 00:26:09;;;;;;;52.53;29.83;;;0.30;99.90;;;;;;5060352;28;20044;-46
2022/12/04 00:28:35;;;;;;;51.13;29.25;;;0.30;99.90;;;;;;5058382;28;20056;-46
2022/12/04 00:31:07;;;;;;;51.10;30.60;;;0.30;99.90;;;;;;5062175;28;20063;-45
2022/12/04 00:33:33;;;;;;;46.00;26.92;;;0.30;99.90;;;;;;5064958;28;20040;-46
2022/12/04 00:36:03;;;;;;;52.83;32.72;;;0.30;99.90;;;;;;5061559;28;20041;-45
2022/12/04 00:38:29;;;;;;;48.40;27.98;;;0.30;99.90;;;;;;5065511;28;20072;-46
2022/12/04 00:40:54;;;;;;;44.28;24.30;;;0.30;99.90;;;;;;5071260;28;20516;-45
2022/12/04 00:43:21;;;;;;;51.72;30.33;;;0.30;99.90;;;;;;5066221;28;20465;-47
2022/12/04 00:45:47;;;;;;;52.42;31.45;;;0.30;99.90;;;;;;5060625;28;20050;-46
2022/12/04 00:48:12;;;;;;;53.60;30.77;;;0.30;99.90;;;;;;5057873;28;20049;-45
2022/12/04 00:50:38;;;;;;;52.30;30.20;;;0.30;99.90;;;;;;5055545;28;20036;-45
2022/12/04 00:53:03;;;;;;;44.92;25.90;;;0.30;99.90;;;;;;5056623;28;20141;-45
2022/12/04 00:55:29;;;;;;;44.00;24.55;;;0.30;99.90;;;;;;5060819;28;20044;-44
2022/12/04 00:57:55;;;;;;;53.55;33.00;;;0.30;99.90;;;;;;5064078;28;20071;-49
2022/12/04 01:00:21;;;;;;;48.05;28.30;;;0.30;99.90;;;;;;5048491;28;20033;-49
2022/12/04 01:02:46;;;;;;;52.80;30.77;;;0.30;99.90;;;;;;5063164;28;20063;-45
2022/12/04 01:05:12;;;;;;;51.35;30.40;;;0.40;99.90;;;;;;5065051;28;20039;-47
2022/12/04 01:07:38;;;;;;;52.10;30.02;;;0.30;99.90;;;;;;5059239;28;20047;-47
2022/12/04 01:10:06;;;;;;;46.78;28.33;;;0.40;99.90;;;;;;5055688;28;20045;-44
2022/12/04 01:12:32;;;;;;;53.17;32.72;;;0.40;99.90;;;;;;5057732;28;20044;-47
2022/12/04 01:14:58;;;;;;;54.58;32.40;;;0.40;99.90;;;;;;5039923;28;20049;-46
2022/12/04 01:17:24;;;;;;;50.95;30.55;;;0.30;99.90;;;;;;5059166;28;20097;-47
2022/12/04 01:19:50;;;;;;;50.35;30.05;;;0.30;99.90;;;;;;5057640;28;20037;-48
2022/12/04 01:22:16;;;;;;;53.03;29.45;;;0.30;99.90;;;;;;5058502;28;20036;-45
2022/12/04 01:24:42;;;;;;;53.58;31.67;;;0.30;99.90;;;;;;5057403;28;20049;-46
2022/12/04 01:27:07;;;;;;;53.03;29.67;;;0.30;99.90;;;;;;5057906;28;20055;-46
2022/12/04 01:29:33;;;;;;;54.70;29.00;;;0.30;99.90;;;;;;5057315;28;20037;-45
2022/12/04 01:31:59;;;;;;;57.33;32.05;;;0.30;99.90;;;;;;5056134;28;20040;-47
2022/12/04 01:34:25;;;;;;;57.35;34.65;;;0.30;99.90;;;;;;5055764;28;20076;-45
2022/12/04 01:36:50;;;;;;;49.92;27.85;;;0.30;99.90;;;;;;5057762;28;20052;-46
2022/12/04 01:39:16;;;;;;;52.58;29.98;;;0.30;99.90;;;;;;5056243;28;20094;-48
2022/12/04 01:41:42;;;;;;;56.60;32.80;;;0.30;99.90;;;;;;5055998;28;21320;-46
2022/12/04 01:44:17;;;;;;;59.80;35.55;;;0.30;99.90;;;;;;5056021;28;20368;-44
2022/12/04 01:47:04;;;;;;;49.67;27.10;;;0.30;99.90;;;;;;5056811;28;20138;-46
2022/12/04 01:49:41;;;;;;;56.95;32.60;;;0.30;99.90;;;;;;5059958;28;20406;-46
2022/12/04 01:52:14;;;;;;;58.53;33.60;;;0.30;99.90;;;;;;5056422;28;20418;-45
2022/12/04 01:54:44;;;;;;;56.67;30.95;;;0.30;99.90;;;;;;5061057;28;20044;-46
2022/12/04 01:57:21;;;;;;;58.50;32.78;;;0.20;99.90;;;;;;5061443;28;20767;-45
2022/12/04 01:59:51;;;;;;;62.20;35.07;;;0.30;99.90;;;;;;5063160;28;20036;-45
2022/12/04 02:02:22;;;;;;;62.55;35.45;;;0.30;99.90;;;;;;5061731;28;20049;-48
2022/12/04 02:04:49;;;;;;;53.17;31.40;;;0.30;99.90;;;;;;5043682;28;20059;-47
2022/12/04 02:07:15;;;;;;;55.70;32.25;;;0.20;99.90;;;;;;5063537;28;20044;-46
2022/12/04 02:09:41;;;;;;;52.17;30.98;;;0.30;99.90;;;;;;5039860;28;20040;-45
2022/12/04 02:12:31;;;;;;;58.20;35.58;;;0.30;99.90;;;;;;5055281;28;20658;-45
2022/12/04 02:15:34;;;;;;;62.83;34.38;;;0.30;99.90;;;;;;5056647;28;20076;-46
2022/12/04 02:18:23;;;;;;;60.10;34.63;;;0.30;99.90;;;;;;5058107;28;20036;-46
2022/12/04 02:21:08;;;;;;;59.03;34.95;;;0.30;99.90;;;;;;5057612;28;20041;-47
2022/12/04 02:23:45;;;;;;;58.33;33.33;;;0.30;99.90;;;;;;5058369;28;20044;-49
2022/12/04 02:26:29;;;;;;;60.15;33.70;;;0.30;99.90;;;;;;5066116;28;20048;-46
2022/12/04 02:29:01;;;;;;;63.08;32.80;;;0.30;99.90;;;;;;5066347;28;20055;-46
2022/12/04 02:31:40;;;;;;;55.92;31.95;;;0.30;99.90;;;;;;5072645;28;20414;-47
2022/12/04 02:34:37;;;;;;;59.83;33.05;;;0.30;99.90;;;;;;5063256;28;20837;-48
2022/12/04 02:37:16;;;;;;;57.65;31.38;;;0.30;99.90;;;;;;5063060;28;20094;-45
2022/12/04 02:39:53;;;;;;;50.30;28.52;;;0.30;99.90;;;;;;5063924;28;20045;-49
2022/12/04 02:42:25;;;;;;;55.83;31.02;;;0.30;99.90;;;;;;5062990;28;20036;-45
2022/12/04 02:45:01;;;;;;;61.00;35.33;;;0.30;99.90;;;;;;5063485;28;20036;-45
2022/12/04 02:47:28;;;;;;;55.75;33.33;;;0.30;99.90;;;;;;5063819;28;20040;-49
2022/12/04 02:50:02;;;;;;;60.28;36.00;;;0.30;99.90;;;;;;5058583;28;20054;-46
2022/12/04 02:52:34;;;;;;;60.97;34.75;;;0.30;99.90;;;;;;5037196;28;20163;-47
2022/12/04 02:55:07;;;;;;;53.97;28.35;;;0.30;99.90;;;;;;5058249;28;20512;-49
2022/12/04 02:57:35;;;;;;;52.38;27.92;;;0.30;99.90;;;;;;5062746;28;20561;-47
2022/12/04 03:00:06;;;;;;;54.53;31.33;;;0.30;99.90;;;;;;5061044;28;20478;-45
2022/12/04 03:03:05;;;;;;;58.30;33.13;;;0.30;99.90;;;;;;5062297;28;20048;-46
2022/12/04 03:05:59;;;;;;;61.30;33.58;;;0.30;99.90;;;;;;5060875;28;20069;-46
2022/12/04 03:08:42;;;;;;;56.55;31.70;;;0.30;99.90;;;;;;5044283;28;20486;-45
2022/12/04 03:11:08;;;;;;;44.67;21.75;;;0.30;99.90;;;;;;5061963;28;20578;-46
2022/12/04 03:13:51;;;;;;;52.30;29.50;;;0.30;99.90;;;;;;5056296;28;20124;-47
2022/12/04 03:16:31;;;;;;;53.95;30.73;;;0.30;99.90;;;;;;5060183;28;20131;-48
2022/12/04 03:19:09;;;;;;;62.15;34.20;;;0.30;99.90;;;;;;5054618;28;20075;-47
2022/12/04 03:21:38;;;;;;;;;;;0.30;99.90;;;;;;5053700;28;20049;-46
2022/12/04 03:24:16;;;;;;;49.88;25.05;;;0.30;99.90;;;;;;5037213;28;19925;-48
2022/12/04 03:26:53;;;;;;;59.38;30.75;;;0.30;99.90;;;;;;5055236;28;20051;-46
2022/12/04 03:29:23;;;;;;;58.55;30.90;;;0.30;99.90;;;;;;5058535;28;20072;-47
2022/12/04 03:31:55;;;;;;;60.55;33.75;;;0.30;99.90;;;;;;5044747;28;20091;-46
2022/12/04 03:34:33;;;;;;;64.78;34.50;;;0.30;99.90;;;;;;5055730;28;20135;-47
2022/12/04 03:37:09;;;;;;;57.80;34.38;;;0.30;99.90;;;;;;5056105;28;20045;-45
2022/12/04 03:40:11;;;;;;;57.00;30.55;;;0.30;99.90;;;;;;5056050;28;20056;-45
2022/12/04 03:42:44;;;;;;;53.35;28.73;;;0.30;99.90;;;;;;5064660;28;20051;-46
2022/12/04 03:45:19;;;;;;;58.30;32.63;;;0.30;99.90;;;;;;5066211;28;20044;-48
2022/12/04 03:47:47;;;;;;;61.67;35.75;;;0.30;99.90;;;;;;5063281;28;20924;-47
2022/12/04 03:50:25;;;;;;;53.28;24.75;;;0.30;99.90;;;;;;5060785;28;20044;-47
2022/12/04 03:52:55;;;;;;;;;;;0.30;99.90;;;;;;5038595;28;20048;-47
2022/12/04 03:55:31;;;;;;;60.67;33.53;;;0.30;99.90;;;;;;5063096;28;19920;-46
2022/12/04 03:58:02;;;;;;;39.65;20.25;;;0.30;99.90;;;;;;5060695;28;20068;-45
2022/12/04 04:00:31;;;;;;;61.22;32.60;;;0.30;99.90;;;;;;5060119;28;20505;-48
2022/12/04 04:03:06;;;;;;;58.20;30.35;;;0.30;99.90;;;;;;5058314;28;20052;-46
2022/12/04 04:05:33;;;;;;;55.58;26.83;;;0.30;99.90;;;;;;5061357;28;20087;-46
2022/12/04 04:10:57;;;;;;;58.33;31.27;;;0.30;99.90;;;;;;5057070;28;20478;-45
2022/12/04 04:25:05;;;;;;;49.13;27.15;;;0.30;99.90;;;;;;5064362;28;20048;-46
2022/12/04 04:27:31;;;;;;;53.75;29.33;;;0.30;99.90;;;;;;5048377;28;20047;-49
2022/12/04 04:29:57;;;;;;;56.65;30.85;;;0.30;99.90;;;;;;5066635;28;20036;-47
2022/12/04 04:32:43;;;;;;;56.83;28.95;;;0.30;99.90;;;;;;5070052;28;20133;-48
2022/12/04 04:35:26;;;;;;;42.03;24.83;;;0.30;99.90;;;;;;5047929;28;20040;-47
2022/12/04 04:38:13;;;;;;;59.70;32.55;;;0.30;99.90;;;;;;5065366;28;20052;-48
2022/12/04 04:41:07;;;;;;;47.67;27.15;;;0.30;99.90;;;;;;5047552;28;20494;-48
2022/12/04 04:43:44;;;;;;;60.63;34.72;;;0.30;99.90;;;;;;5065757;28;20055;-45
2022/12/04 04:46:17;;;;;;;46.38;25.58;;;0.30;99.90;;;;;;5069377;28;20037;-46
2022/12/04 04:48:47;;;;;;;44.67;22.98;;;0.30;99.90;;;;;;5044982;28;20163;-45
2022/12/04 04:51:14;;;;;;;52.35;26.95;;;0.30;99.90;;;;;;5060935;28;20572;-45
2022/12/04 04:53:45;;;;;;;54.97;30.58;;;0.30;99.90;;;;;;5063409;28;20036;-46
2022/12/04 04:56:11;;;;;;;57.95;29.98;;;0.30;99.90;;;;;;5049649;28;20037;-45
2022/12/04 04:58:37;;;;;;;54.45;28.35;;;0.30;99.90;;;;;;5062306;28;20091;-47
2022/12/04 05:01:04;;;;;;;55.88;31.08;;;0.30;99.90;;;;;;5064643;28;20072;-45
2022/12/04 05:03:30;;;;;;;52.75;29.27;;;0.30;99.90;;;;;;5069283;28;20135;-47
2022/12/04 05:05:56;;;;;;;48.20;24.85;;;0.30;99.90;;;;;;5049857;28;20032;-46
2022/12/04 05:08:22;;;;;;;45.20;27.63;;;0.30;99.90;;;;;;5065354;28;20040;-47
2022/12/04 05:10:47;;;;;;;41.70;20.95;;;0.20;99.90;;;;;;5064550;28;20041;-48
2022/12/04 05:13:14;;;;;;;52.10;26.95;;;0.30;99.90;;;;;;5065333;28;20052;-47
2022/12/04 05:15:40;;;;;;;46.40;28.08;;;0.30;99.90;;;;;;5064135;28;20127;-47
2022/12/04 05:18:06;;;;;;;50.05;27.27;;;0.30;99.90;;;;;;5067883;28;20138;-47
2022/12/04 05:20:32;;;;;;;56.10;30.42;;;0.30;99.90;;;;;;5065057;28;20048;-48
2022/12/04 05:22:57;;;;;;;58.05;33.15;;;0.30;99.90;;;;;;5032469;28;20040;-49
2022/12/04 05:25:23;;;;;;;53.55;28.13;;;0.30;99.90;;;;;;5067253;28;20123;-46
2022/12/04 05:27:49;;;;;;;51.92;29.00;;;0.30;99.90;;;;;;5064759;28;20040;-45
2022/12/04 05:30:15;;;;;;;61.13;33.80;;;0.30;99.90;;;;;;5066746;28;20047;-44
2022/12/04 05:32:41;;;;;;;48.88;24.80;;;0.30;99.90;;;;;;5064049;28;20048;-47
2022/12/04 05:35:07;;;;;;;57.53;32.42;;;0.30;99.90;;;;;;5062139;28;20699;-46
2022/12/04 05:37:36;;;;;;;59.58;33.63;;;0.30;99.90;;;;;;5063993;28;20036;-45
2022/12/04 05:40:03;;;;;;;54.80;31.60;;;0.30;99.90;;;;;;5065549;28;20078;-45
2022/12/04 05:42:28;;;;;;;53.58;30.90;;;0.30;99.90;;;;;;5065872;28;20075;-45
2022/12/04 05:44:54;;;;;;;51.80;29.60;;;0.30;99.90;;;;;;5067182;28;20095;-46
2022/12/04 05:47:19;;;;;;;52.10;27.45;;;0.30;99.90;;;;;;5064062;28;20566;-46
2022/12/04 05:49:45;;;;;;;57.22;32.70;;;0.30;99.90;;;;;;5061493;28;20397;-46
2022/12/04 05:52:11;;;;;;;55.35;29.95;;;0.30;99.90;;;;;;5064099;28;20032;-47
2022/12/04 05:54:37;;;;;;;53.95;29.40;;;0.30;99.90;;;;;;5066207;28;20033;-46
2022/12/04 05:57:03;;;;;;;42.40;21.73;;;0.30;99.90;;;;;;5062191;28;20036;-46
2022/12/04 05:59:28;;;;;;;43.03;23.65;;;0.30;99.90;;;;;;5066100;28;20130;-47
2022/12/04 06:01:54;;;;;;;60.60;32.35;;;0.30;99.90;;;;;;5063938;28;20119;-44
2022/12/04 06:04:20;;;;;;;57.53;33.10;;;0.30;99.90;;;;;;5064596;28;20148;-48
2022/12/04 06:06:46;;;;;;;56.70;31.27;;;0.30;99.90;;;;;;5065912;28;20462;-45
2022/12/04 06:09:11;;;;;;;53.97;28.67;;;0.30;99.90;;;;;;5060183;28;20054;-46
2022/12/04 06:11:39;;;;;;;55.78;33.13;;;0.30;99.90;;;;;;5057890;28;20072;-45
2022/12/04 06:14:09;;;;;;;59.22;32.00;;;0.30;99.90;;;;;;5060823;28;20450;-45
2022/12/04 06:16:37;;;;;;;57.40;33.47;;;0.30;99.90;;;;;;5037970;28;20072;-45
2022/12/04 06:19:08;;;;;;;57.47;32.47;;;0.30;99.90;;;;;;5058489;28;20053;-45
2022/12/04 06:21:36;;;;;;;53.42;29.75;;;0.30;99.90;;;;;;5057778;28;20045;-48
2022/12/04 06:24:02;;;;;;;57.28;30.60;;;0.30;99.90;;;;;;5058817;28;20381;-45
2022/12/04 06:26:28;;;;;;;64.50;29.52;;;0.30;99.90;;;;;;5058606;28;20044;-45
2022/12/04 06:28:55;;;;;;;46.05;23.70;;;0.20;99.90;;;;;;5058099;28;20047;-47
2022/12/04 06:31:21;;;;;;;58.37;31.10;;;0.30;99.90;;;;;;5062847;28;20391;-46
2022/12/04 06:33:47;;;;;;;53.25;28.15;;;0.30;99.90;;;;;;5046290;28;20082;-45
2022/12/04 06:36:16;;;;;;;54.53;31.33;;;0.30;99.90;;;;;;5062672;28;20040;-47
2022/12/04 06:38:42;;;;;;;58.47;34.63;;;0.30;99.90;;;;;;5063749;28;20044;-45
2022/12/04 06:41:11;;;;;;;46.20;25.45;;;0.20;99.90;;;;;;5063957;28;20041;-46
2022/12/04 06:43:37;;;;;;;58.38;32.28;;;0.20;99.90;;;;;;5045069;28;20466;-45
2022/12/04 06:46:14;;;;;;;56.72;30.88;;;0.20;99.90;;;;;;5063124;28;20465;-47
2022/12/04 06:48:40;;;;;;;55.25;29.70;;;0.20;99.90;;;;;;5059836;28;20036;-45
2022/12/04 06:51:10;;;;;;;47.80;25.55;;;0.30;99.90;;;;;;5059219;28;20676;-46
2022/12/04 06:53:36;;;;;;;47.47;27.58;;;0.20;99.90;;;;;;5059199;28;20053;-47
2022/12/04 06:56:04;;;;;;;54.95;31.15;;;0.20;99.90;;;;;;5061480;28;20044;-48
2022/12/04 06:58:30;;;;;;;54.08;28.58;;;0.30;99.90;;;;;;5055073;28;20187;-45
2022/12/04 07:00:56;;;;;;;56.50;32.47;;;0.30;99.90;;;;;;5054990;28;20098;-47
2022/12/04 07:03:23;;;;;;;52.30;28.20;;;0.30;99.90;;;;;;5038432;28;20049;-47
2022/12/04 07:05:49;;;;;;;57.35;32.92;;;0.30;99.90;;;;;;5058974;28;20048;-45
2022/12/04 07:08:15;;;;;;;54.35;28.08;;;0.30;99.90;;;;;;5056083;28;20044;-47
2022/12/04 07:10:41;;;;;;;50.03;30.00;;;0.30;99.90;;;;;;5058747;28;20083;-47
2022/12/04 07:13:07;;;;;;;49.17;27.85;;;0.30;99.90;;;;;;5060151;28;20053;-46
2022/12/04 07:15:34;;;;;;;59.22;34.03;;;0.30;99.90;;;;;;5057286;28;20048;-46
2022/12/04 07:18:00;;;;;;;51.10;25.95;;;0.30;99.90;;;;;;5054895;28;20173;-46
2022/12/04 07:20:26;;;;;;;55.05;30.65;;;0.30;99.90;;;;;;5054987;28;20036;-46
2022/12/04 07:22:52;;;;;;;56.70;32.92;;;0.30;99.90;;;;;;5055929;28;20050;-46
2022/12/04 07:25:17;;;;;;;57.70;30.98;;;0.30;99.90;;;;;;5039099;28;20052;-46
2022/12/04 07:27:43;;;;;;;55.70;29.33;;;0.30;99.90;;;;;;5039228;28;20048;-47
2022/12/04 07:30:09;;;;;;;59.83;32.80;;;0.30;99.90;;;;;;5055014;28;20314;-45
2022/12/04 07:32:36;;;;;;;57.65;30.17;;;0.30;99.90;;;;;;5040020;28;20041;-45
2022/12/04 07:35:02;;;;;;;56.75;31.15;;;0.20;99.90;;;;;;5055534;28;20037;-46
2022/12/04 07:37:28;;;;;;;53.85;30.27;;;0.20;99.90;;;;;;5054756;28;20045;-48
2022/12/04 07:39:53;;;;;;;57.15;31.20;;;0.20;99.90;;;;;;5055696;28;20043;-47
2022/12/04 07:42:19;;;;;;;58.95;29.35;;;0.20;99.90;;;;;;5064910;28;20040;-48
2022/12/04 07:44:45;;;;;;;60.45;32.38;;;0.20;99.90;;;;;;5070631;28;20373;-44
2022/12/04 07:47:11;;;;;;;59.50;32.35;;;0.20;99.90;;;;;;5059084;28;20056;-45
2022/12/04 07:49:37;;;;;;;51.70;26.92;;;0.30;99.90;;;;;;5058199;28;20047;-46
2022/12/04 07:52:03;;;;;;;57.10;31.73;;;0.20;99.90;;;;;;5045714;28;20043;-46
2022/12/04 07:54:28;;;;;;;47.15;25.33;;;0.30;99.90;;;;;;5059360;28;20072;-45
2022/12/04 07:56:54;;;;;;;38.67;20.67;;;0.30;99.90;;;;;;5055549;28;20170;-46
2022/12/04 07:59:19;;;;;;;53.60;27.98;;;0.30;99.90;;;;;;5040564;28;20062;-45
2022/12/04 08:01:45;;;;;;;56.67;29.77;;;0.20;99.90;;;;;;5062299;28;20511;-46
2022/12/04 08:04:11;;;;;;;56.38;29.05;;;0.30;99.90;;;;;;5067041;28;20051;-45
2022/12/04 08:06:37;;;;;;;52.60;26.33;;;0.20;99.90;;;;;;5041178;28;20045;-47
2022/12/04 08:09:06;;;;;;;48.75;24.95;;;0.40;99.90;;;;;;5060233;28;20535;-46
2022/12/04 08:11:33;;;;;;;58.60;29.27;;;0.30;99.90;;;;;;5062617;28;20079;-45
2022/12/04 08:14:04;;;;;;;60.38;28.27;;;0.30;99.90;;;;;;5065864;28;20415;-47
2022/12/04 08:16:31;;;;;;;57.75;31.27;;;0.30;99.90;;;;;;5067439;28;20044;-47
2022/12/04 08:18:58;;;;;;;52.50;26.67;;;0.30;99.90;;;;;;5052210;28;20048;-45
2022/12/04 08:21:27;;;;;;;56.45;30.70;;;0.30;99.90;;;;;;5067323;28;20043;-46
2022/12/04 08:23:55;;;;;;;42.95;21.05;;;0.40;99.90;;;;;;5066891;28;20071;-48
2022/12/04 08:26:23;;;;;;;59.53;31.70;;;0.30;99.90;;;;;;5067691;28;20051;-46
2022/12/04 08:28:52;;;;;;;56.85;28.50;;;0.40;99.90;;;;;;5073062;28;20044;-50
2022/12/04 08:31:21;;;;;;;51.83;24.88;;;0.40;99.90;;;;;;5068120;28;20036;-47
2022/12/04 08:33:47;;;;;;;51.00;28.52;;;0.40;99.90;;;;;;5049435;28;20041;-48
2022/12/04 08:36:18;;;;;;;60.72;33.17;;;0.40;99.90;;;;;;5065197;28;20091;-47
2022/12/04 08:38:44;;;;;;;55.70;30.85;;;0.40;99.90;;;;;;5064238;28;20082;-47
2022/12/04 08:41:15;;;;;;;61.05;31.67;;;0.50;99.90;;;;;;5064424;28;20051;-49
2022/12/04 08:43:41;;;;;;;53.97;26.92;;;0.50;99.90;;;;;;5045293;28;20049;-49
2022/12/04 08:46:13;;;;;;;49.72;26.50;;;0.50;99.90;;;;;;5065934;28;20048;-47
2022/12/04 08:48:38;;;;;;;58.53;30.85;;;0.50;99.90;;;;;;5064382;28;20479;-47
2022/12/04 08:51:07;;;;;;;62.00;30.73;;;0.50;99.90;;;;;;5065308;28;20126;-47
2022/12/04 08:53:35;;;;;;;53.47;28.83;;;0.50;99.90;;;;;;5052180;28;20048;-47
2022/12/04 08:56:00;;;;;;;;;;;0.50;99.90;;;;;;5068715;28;20087;-45
2022/12/04 08:58:26;;;;;;;57.28;28.00;;;0.50;99.90;;;;;;5072336;28;19920;-46
2022/12/04 09:00:52;;;;;;;57.92;31.13;;;;;;;;;;5070149;28;20401;-46
2022/12/04 09:03:19;;;;;;;55.53;28.70;;;0.60;99.90;;;;;;5070272;28;20072;-47
2022/12/04 09:05:46;;;;;;;54.40;26.65;;;0.60;99.90;;;;;;5070819;28;20534;-48
2022/12/04 09:08:15;;;;;;;62.05;31.80;;;0.60;99.90;;;;;;5070912;28;20068;-49
2022/12/04 09:10:42;;;;;;;53.33;28.52;;;0.60;99.90;;;;;;5074751;28;20040;-46
2022/12/04 09:13:08;;;;;;;57.90;30.23;;;0.60;99.90;;;;;;5072232;28;20047;-46
2022/12/04 09:15:37;;;;;;;60.03;32.03;;;0.60;99.90;;;;;;5073805;28;20410;-47
2022/12/04 09:18:02;;;;;;;48.72;26.38;;;0.60;99.90;;;;;;5050435;28;20040;-46
2022/12/04 09:20:28;;;;;;;55.90;30.48;;;0.60;99.90;;;;;;5071049;28;20037;-47
2022/12/04 09:22:53;;;;;;;63.17;33.33;;;0.60;99.90;;;;;;5071656;28;20044;-48
2022/12/04 09:25:19;;;;;;;42.38;21.55;;;0.70;99.90;;;;;;5055316;28;20044;-46
2022/12/04 09:27:46;;;;;;;47.72;21.52;;;0.70;99.90;;;;;;5073818;28;20047;-47
2022/12/04 09:30:12;;;;;;;53.10;28.15;;;0.70;99.90;;;;;;5070675;28;20044;-49
2022/12/04 09:32:38;;;;;;;60.47;28.10;;;0.70;99.90;;;;;;5071703;28;20037;-46
2022/12/04 09:35:04;;;;;;;58.78;31.25;;;0.70;99.90;;;;;;5056233;28;20182;-46
2022/12/04 09:37:32;;;;;;;54.40;28.92;;;;;;;;;;5052428;28;20033;-48
2022/12/04 09:39:57;;;;;;;60.63;33.43;;;0.80;99.90;;;;;;5061773;28;20407;-47
2022/12/04 09:42:35;;;;;;;69.18;34.58;;;0.80;99.90;;;;;;5048145;28;20318;-47
2022/12/04 09:45:10;;;;;;;60.28;32.55;;;0.80;99.90;;;;;;5067246;28;20414;-46
2022/12/04 09:47:42;;;;;;;59.22;30.60;;;0.90;99.90;;;;;;5063615;28;20044;-46
2022/12/04 09:50:23;;;;;;;46.97;24.77;;;0.90;99.90;;;;;;5066587;28;20116;-49
2022/12/04 09:52:56;;;;;;;60.65;34.13;;;0.90;99.90;;;;;;5046710;28;20056;-47
2022/12/04 09:55:31;;;;;;;56.17;30.70;;;0.90;99.90;;;;;;5065802;28;20172;-47
2022/12/04 09:58:00;;;;;;;59.72;32.75;;;1.00;99.90;;;;;;5065910;28;20119;-46
2022/12/04 10:00:28;;;;;;;64.47;36.95;;;1.00;99.90;;;;;;5070272;28;20033;-46
2022/12/04 10:03:05;;;;;;;61.17;31.33;;;1.00;99.90;;;;;;5068051;28;20127;-48
2022/12/04 10:05:51;;;;;;;59.28;32.35;;;1.10;99.90;;;;;;5068065;28;20517;-47
2022/12/04 10:08:27;;;;;;;61.00;33.35;;;1.10;99.90;;;;;;5071287;28;20055;-46
2022/12/04 10:11:08;;;;;;;55.67;27.95;;;1.10;99.90;;;;;;5071959;28;20417;-47
2022/12/04 10:13:52;;;;;;;61.33;31.40;;;1.10;99.90;;;;;;5066525;28;20049;-47
2022/12/04 10:16:51;;;;;;;63.67;32.97;;;1.20;99.90;;;;;;5061196;28;20084;-47
2022/12/04 10:19:36;;;;;;;57.90;32.45;;;1.20;99.90;;;;;;5065099;28;20040;-48
2022/12/04 10:22:20;;;;;;;57.42;33.03;;;1.20;99.90;;;;;;5065617;28;20044;-47
2022/12/04 10:25:00;;;;;;;56.83;31.58;;;1.30;99.90;;;;;;5065570;28;20041;-47
2022/12/04 10:27:30;;;;;;;58.03;31.13;;;1.30;99.90;;;;;;5062596;28;20055;-47
2022/12/04 10:30:09;;;;;;;55.90;31.80;;;1.30;99.90;;;;;;5082975;22;20340;-47
2022/12/04 10:32:36;;;;;;;60.42;32.15;;;1.30;99.90;;;;;;5067336;28;20414;-49
2022/12/04 10:35:14;;;;;;;56.08;31.58;;;1.30;99.90;;;;;;5068022;28;20402;-48
2022/12/04 10:37:42;;;;;;;60.45;34.47;;;1.40;99.90;;;;;;5066555;28;20051;-47
2022/12/04 10:40:21;;;;;;;57.00;32.53;;;1.40;99.90;;;;;;5069579;28;20434;-47
2022/12/04 10:42:54;;;;;;;49.08;23.42;;;1.40;99.90;;;;;;5050495;28;20103;-46
2022/12/04 10:45:21;;;;;;;46.50;24.58;;;1.40;99.90;;;;;;5052219;28;20048;-46
2022/12/04 10:47:48;;;;;;;48.90;28.00;;;1.40;99.90;;;;;;5070584;28;20056;-48
2022/12/04 10:50:17;;;;;;;60.00;31.25;;;1.40;99.90;;;;;;5069865;28;20044;-47
2022/12/04 10:52:44;;;;;;;54.08;29.73;;;1.40;99.90;;;;;;5069258;28;20041;-48
2022/12/04 10:55:10;;;;;;;58.78;32.03;;;1.40;99.90;;;;;;5047061;28;20512;-49
2022/12/04 10:57:42;;;;;;;49.28;29.88;;;1.50;99.90;;;;;;5067208;28;20040;-47
2022/12/04 11:00:30;;;;;;;56.63;31.85;;;1.50;99.90;;;;;;5051319;28;20045;-48
2022/12/04 11:03:17;;;;;;;51.77;28.33;;;1.50;99.90;;;;;;5058121;28;20099;-47
2022/12/04 11:05:51;;;;;;;35.75;21.83;;;1.50;99.90;;;;;;5067210;28;20355;-48
2022/12/04 11:08:23;;;;;;;52.95;30.17;;;1.50;99.90;;;;;;5063196;28;20132;-46
2022/12/04 11:11:05;;;;;;;47.47;27.42;;;1.50;99.90;;;;;;5057628;28;20509;-48
2022/12/04 11:13:31;;;;;;;53.15;32.28;;;1.60;99.90;;;;;;5069711;28;20505;-46
2022/12/04 11:15:57;;;;;;;51.10;28.55;;;1.60;99.90;;;;;;5071201;28;20070;-47
2022/12/04 11:18:27;;;;;;;51.58;28.98;;;1.60;99.90;;;;;;5068765;28;20079;-47
2022/12/04 11:21:19;;;;;;;50.85;30.27;;;1.70;99.90;;;;;;5072260;28;20068;-47
2022/12/04 11:23:49;;;;;;;49.85;27.38;;;1.60;99.90;;;;;;5062796;28;20048;-47
2022/12/04 11:26:17;;;;;;;43.28;25.05;;;1.70;99.90;;;;;;5072898;28;20049;-46
2022/12/04 11:28:45;;;;;;;;;;;1.70;99.90;;;;;;5072366;28;20041;-46
2022/12/04 11:31:17;;;;;;;39.88;23.55;;;1.80;99.90;;;;;;5069665;28;19928;-47
2022/12/04 11:33:57;;;;;;;40.95;23.85;;;1.80;99.90;;;;;;5071156;28;20044;-46
2022/12/04 11:36:36;;;;;;;41.88;25.98;;;1.80;99.90;;;;;;5070684;28;20407;-47
2022/12/04 11:39:40;;;;;;;47.22;27.92;;;1.80;99.90;;;;;;5068914;28;20785;-47
2022/12/04 11:42:11;;;;;;;41.47;24.77;;;1.90;99.90;;;;;;4972599;28;20070;-47
2022/12/04 11:44:37;;;;;;;45.60;26.63;;;1.90;99.90;;;;;;4958250;28;20096;-49
2022/12/04 11:47:04;;;;;;;39.03;22.90;;;2.00;99.90;;;;;;4990236;28;20120;-46
2022/12/04 11:49:31;;;;;;;43.33;25.23;;;2.00;99.90;;;;;;4957922;28;20198;-48
2022/12/04 11:52:43;;;;;;;43.33;26.08;;;2.00;99.90;;;;;;4982718;28;20218;-47
2022/12/04 11:55:22;;;;;;;39.88;22.73;;;2.00;99.90;;;;;;4970164;28;20054;-48
2022/12/04 11:58:18;;;;;;;36.70;22.30;;;2.10;99.90;;;;;;4974647;28;20042;-47
2022/12/04 12:00:56;;;;;;;34.70;20.27;;;2.10;99.90;;;;;;5057137;22;20113;-50
2022/12/04 12:03:42;;;;;;;32.15;19.10;;;2.10;99.90;;;;;;5052764;28;20064;-46
2022/12/04 12:06:38;;;;;;;39.53;24.45;;;2.20;99.90;;;;;;5064107;28;20087;-48
2022/12/04 12:09:32;;;;;;;38.53;24.48;;;2.20;99.90;;;;;;5069177;28;20139;-48
2022/12/04 12:12:24;;;;;;;32.63;21.05;;;2.20;99.90;;;;;;5049826;28;20503;-47
2022/12/04 12:15:22;;;;;;;35.08;23.00;;;2.20;99.90;;;;;;5067586;28;20109;-48
2022/12/04 12:18:15;;;;;;;30.27;18.42;;;2.20;99.90;;;;;;5020193;28;20067;-48
2022/12/04 12:20:56;;;;;;;33.78;22.17;;;2.30;99.90;;;;;;5061090;28;20029;-48
2022/12/04 12:23:22;;;;;;;30.38;19.48;;;2.30;99.90;;;;;;5067771;28;20045;-47
2022/12/04 12:25:50;;;;;;;30.92;20.55;;;2.30;99.90;;;;;;5068355;28;20128;-48
2022/12/04 12:28:40;;;;;;;23.95;16.08;;;2.30;99.90;;;;;;5063713;28;20530;-47
2022/12/04 12:31:31;;;;;;;22.73;14.65;;;2.30;99.90;;;;;;5067781;28;20070;-47
2022/12/04 12:34:10;;;;;;;28.20;17.83;;;2.30;99.90;;;;;;5069380;28;20056;-47
2022/12/04 12:36:42;;;;;;;35.05;20.85;;;2.30;99.90;;;;;;5071303;28;20114;-49
2022/12/04 12:39:38;;;;;;;32.25;20.25;;;2.30;99.90;;;;;;5067732;28;20498;-47
2022/12/04 12:42:11;;;;;;;29.85;19.88;;;2.30;99.90;;;;;;5069131;28;20507;-47
2022/12/04 12:44:54;;;;;;;27.27;16.55;;;2.30;99.90;;;;;;5063413;28;20048;-48
2022/12/04 12:47:28;;;;;;;26.25;16.50;;;2.30;99.90;;;;;;5068392;28;20442;-50
2022/12/04 12:49:56;;;;;;;29.38;18.38;;;2.30;99.90;;;;;;5050906;28;20059;-46
2022/12/04 12:52:54;;;;;;;22.55;13.23;;;2.30;99.90;;;;;;5073087;28;20044;-48
2022/12/04 12:55:29;;;;;;;;;;;2.30;99.90;;;;;;5070894;28;20158;-48
2022/12/04 12:58:09;;;;;;;26.52;16.13;;;2.30;99.90;;;;;;5064706;28;19920;-46
2022/12/04 13:00:42;;;;;;;30.95;19.35;;;2.30;99.90;;;;;;5062193;28;20144;-46
2022/12/04 13:03:32;;;;;;;26.83;17.77;;;2.30;99.90;;;;;;5047962;28;20071;-46
2022/12/04 13:06:04;;;;;;;31.50;18.95;;;2.30;99.90;;;;;;5069549;28;20040;-48
2022/12/04 13:08:38;;;;;;;31.92;19.20;;;2.40;99.90;;;;;;5067640;28;20040;-47
2022/12/04 13:11:18;;;;;;;24.55;14.65;;;2.30;99.90;;;;;;5067946;28;20110;-47
2022/12/04 13:13:51;;;;;;;35.28;22.10;;;2.30;99.90;;;;;;5065969;28;20372;-46
2022/12/04 13:16:23;;;;;;;29.70;16.95;;;2.30;99.90;;;;;;5060419;28;20127;-47